createdAt,value
2022-08-25T00:00:24.800Z,2.90
2022-08-25T00:03:08.375Z,2.50
2022-08-25T00:05:36.760Z,2.70
2022-08-25T00:08:07.986Z,2.80
2022-08-25T00:10:39.348Z,2.50
2022-08-25T00:13:07.582Z,2.70
2022-08-25T00:15:36.242Z,3.00
2022-08-25T00:18:05.651Z,2.90
2022-08-25T00:20:47.160Z,2.60
2022-08-25T00:23:19.536Z,2.70
2022-08-25T00:25:48.849Z,2.60
2022-08-25T00:28:17.969Z,3.00
2022-08-25T00:30:46.120Z,2.80
2022-08-25T00:33:14.928Z,2.80
2022-08-25T00:35:44.480Z,2.90
2022-08-25T00:38:14.198Z,2.80
2022-08-25T00:40:43.819Z,2.60
2022-08-25T00:43:12.810Z,3.10
2022-08-25T00:45:40.986Z,3.10
2022-08-25T00:48:09.269Z,3.10
2022-08-25T00:50:37.248Z,3.40
2022-08-25T00:53:06.466Z,2.90
2022-08-25T00:55:39.985Z,3.20
2022-08-25T00:58:25.833Z,2.80
2022-08-25T01:00:57.731Z,2.70
2022-08-25T01:03:35.842Z,3.00
2022-08-25T01:06:06.118Z,2.70
2022-08-25T01:08:35.197Z,2.90
2022-08-25T01:11:06.954Z,2.50
2022-08-25T01:13:43.047Z,2.90
2022-08-25T01:16:14.076Z,2.40
2022-08-25T01:19:00.870Z,2.80
2022-08-25T01:21:32.299Z,2.90
2022-08-25T01:24:01.824Z,3.00
2022-08-25T01:26:34.455Z,2.70
2022-08-25T01:29:25.592Z,2.80
2022-08-25T01:32:05.426Z,2.60
2022-08-25T01:34:38.331Z,2.60
2022-08-25T01:37:06.708Z,3.20
2022-08-25T01:39:36.935Z,2.60
2022-08-25T01:42:09.670Z,2.70
2022-08-25T01:44:45.188Z,3.10
2022-08-25T01:47:14.794Z,2.60
2022-08-25T01:49:43.303Z,2.50
2022-08-25T01:52:37.034Z,3.20
2022-08-25T01:55:06.315Z,2.50
2022-08-25T01:57:34.349Z,2.90
2022-08-25T02:00:02.385Z,3.00
2022-08-25T02:02:42.009Z,2.60
2022-08-25T02:05:14.355Z,2.40
2022-08-25T02:07:44.452Z,2.60
2022-08-25T02:10:13.874Z,2.50
2022-08-25T02:12:41.917Z,2.60
2022-08-25T02:15:11.254Z,2.60
2022-08-25T02:17:39.701Z,2.80
2022-08-25T02:20:09.814Z,2.60
2022-08-25T02:22:37.720Z,2.80
2022-08-25T02:25:06.765Z,2.50
2022-08-25T02:27:35.766Z,2.30
2022-08-25T02:30:06.563Z,2.40
2022-08-25T02:32:35.078Z,2.20
2022-08-25T02:35:03.997Z,2.60
2022-08-25T02:37:32.614Z,2.50
2022-08-25T02:40:01.056Z,2.30
2022-08-25T02:42:29.718Z,2.40
2022-08-25T02:44:57.837Z,2.30
2022-08-25T02:47:27.039Z,2.70
2022-08-25T02:49:55.877Z,2.40
2022-08-25T02:52:25.342Z,2.40
2022-08-25T02:54:53.309Z,2.70
2022-08-25T02:57:21.885Z,2.50
2022-08-25T02:59:51.566Z,2.20
2022-08-25T03:02:19.610Z,1.90
2022-08-25T03:04:47.827Z,2.40
2022-08-25T03:07:16.174Z,2.50
2022-08-25T03:09:46.923Z,2.10
2022-08-25T03:12:15.202Z,2.50
2022-08-25T03:14:43.419Z,2.70
2022-08-25T03:17:11.419Z,2.60
2022-08-25T03:19:39.439Z,2.20
2022-08-25T03:22:07.877Z,2.30
2022-08-25T03:24:36.070Z,2.30
2022-08-25T03:27:05.202Z,2.90
2022-08-25T03:29:34.307Z,2.50
2022-08-25T03:32:02.765Z,2.50
2022-08-25T03:34:31.855Z,2.40
2022-08-25T03:37:00.457Z,2.10
2022-08-25T03:39:29.158Z,2.30
2022-08-25T03:41:57.221Z,2.40
2022-08-25T03:44:25.259Z,2.30
2022-08-25T03:46:53.615Z,2.20
2022-08-25T03:49:24.156Z,2.40
2022-08-25T03:51:55.072Z,2.50
2022-08-25T03:54:26.422Z,2.30
2022-08-25T03:56:55.425Z,2.30
2022-08-25T03:59:25.140Z,2.30
2022-08-25T04:01:55.564Z,2.40
2022-08-25T04:04:24.060Z,2.70
2022-08-25T04:06:53.119Z,2.70
2022-08-25T04:09:21.951Z,2.50
2022-08-25T04:11:53.003Z,2.10
2022-08-25T04:14:23.756Z,2.20
2022-08-25T04:16:53.359Z,2.40
2022-08-25T04:19:21.851Z,2.30
2022-08-25T04:21:50.300Z,2.70
2022-08-25T04:24:19.367Z,2.30
2022-08-25T04:26:51.546Z,2.50
2022-08-25T04:29:23.946Z,2.40
2022-08-25T04:31:54.255Z,2.30
2022-08-25T04:34:29.761Z,2.40
2022-08-25T04:37:03.401Z,2.40
2022-08-25T04:39:31.721Z,2.40
2022-08-25T04:42:01.309Z,2.70
2022-08-25T04:44:30.987Z,2.50
2022-08-25T04:47:00.408Z,2.30
2022-08-25T04:49:28.928Z,2.40
2022-08-25T04:51:57.705Z,2.30
2022-08-25T04:54:26.382Z,2.60
2022-08-25T04:56:58.326Z,2.70
2022-08-25T04:59:30.305Z,2.50
2022-08-25T05:02:03.462Z,2.10
2022-08-25T05:04:34.385Z,2.10
2022-08-25T05:07:04.536Z,2.30
2022-08-25T05:09:33.235Z,2.50
2022-08-25T05:12:03.205Z,2.10
2022-08-25T05:14:32.852Z,2.40
2022-08-25T05:17:02.235Z,2.40
2022-08-25T05:19:31.164Z,2.20
2022-08-25T05:21:59.483Z,2.80
2022-08-25T05:24:28.330Z,3.20
2022-08-25T05:26:57.283Z,3.20
2022-08-25T05:29:25.910Z,3.90
2022-08-25T05:31:54.330Z,3.90
2022-08-25T05:34:22.865Z,3.70
2022-08-25T05:36:51.695Z,4.20
2022-08-25T05:39:19.688Z,3.60
2022-08-25T05:41:48.067Z,3.60
2022-08-25T05:44:20.940Z,3.50
2022-08-25T05:46:50.286Z,3.80
2022-08-25T05:49:19.116Z,4.20
2022-08-25T05:51:47.123Z,3.80
2022-08-25T05:54:15.438Z,3.70
2022-08-25T05:56:45.506Z,3.80
2022-08-25T05:59:13.770Z,3.60
2022-08-25T06:02:00.505Z,3.80
2022-08-25T06:04:28.978Z,3.50
2022-08-25T06:06:57.058Z,3.70
2022-08-25T06:09:25.634Z,4.10
2022-08-25T06:11:55.133Z,3.70
2022-08-25T06:14:25.025Z,3.80
2022-08-25T06:16:53.694Z,3.50
2022-08-25T06:19:23.738Z,3.60
2022-08-25T06:21:57.056Z,3.10
2022-08-25T06:24:28.119Z,3.30
2022-08-25T06:26:57.290Z,3.70
2022-08-25T06:29:26.333Z,3.90
2022-08-25T06:31:54.483Z,3.70
2022-08-25T06:34:23.916Z,3.90
2022-08-25T06:36:53.198Z,3.90
2022-08-25T06:39:24.223Z,3.80
2022-08-25T06:41:54.611Z,3.50
2022-08-25T06:44:24.622Z,3.20
2022-08-25T06:46:52.735Z,3.50
2022-08-25T06:49:21.748Z,3.80
2022-08-25T06:51:50.764Z,3.80
2022-08-25T06:54:18.807Z,3.90
2022-08-25T06:56:47.523Z,3.40
2022-08-25T06:59:18.978Z,3.20
2022-08-25T07:01:49.698Z,3.30
2022-08-25T07:04:19.155Z,3.20
2022-08-25T07:06:48.168Z,3.30
2022-08-25T07:09:16.313Z,3.60
2022-08-25T07:11:45.717Z,3.70
2022-08-25T07:14:17.461Z,3.60
2022-08-25T07:16:50.367Z,3.60
2022-08-25T07:19:21.224Z,3.30
2022-08-25T07:21:53.068Z,2.60
2022-08-25T07:24:22.297Z,3.00
2022-08-25T07:26:51.485Z,2.90
2022-08-25T07:29:31.650Z,3.30
2022-08-25T07:32:03.960Z,3.10
2022-08-25T07:34:51.857Z,3.30
2022-08-25T07:37:47.751Z,3.30
2022-08-25T07:40:21.484Z,3.20
2022-08-25T07:42:53.545Z,3.00
2022-08-25T07:45:30.626Z,3.30
2022-08-25T07:48:12.134Z,3.30
2022-08-25T07:50:48.127Z,3.20
2022-08-25T07:55:47.199Z,3.20
2022-08-25T07:58:16.043Z,3.70
2022-08-25T08:00:48.883Z,3.50
2022-08-25T08:03:42.139Z,3.20
2022-08-25T08:06:15.733Z,3.10
2022-08-25T08:11:30.271Z,2.90
2022-08-25T08:16:30.707Z,3.10
2022-08-25T08:18:59.664Z,3.20
2022-08-25T08:21:35.597Z,3.30
2022-08-25T08:24:10.738Z,3.10
2022-08-25T08:26:58.155Z,2.90
2022-08-25T08:29:28.004Z,3.60
2022-08-25T08:31:56.044Z,3.20
2022-08-25T08:34:25.113Z,3.40
2022-08-25T08:36:54.342Z,3.40
2022-08-25T08:39:23.606Z,3.40
2022-08-25T08:42:29.391Z,4.00
2022-08-25T08:45:29.355Z,3.60
2022-08-25T08:48:33.039Z,3.50
2022-08-25T08:51:13.229Z,3.60
2022-08-25T08:54:02.565Z,3.70
2022-08-25T08:56:39.024Z,3.40
2022-08-25T08:59:21.840Z,3.10
2022-08-25T09:02:00.555Z,3.90
2022-08-25T09:04:55.223Z,3.50
2022-08-25T09:07:32.212Z,3.70
2022-08-25T09:10:01.930Z,3.40
2022-08-25T09:12:48.084Z,3.00
2022-08-25T09:15:51.498Z,3.80
2022-08-25T09:18:52.459Z,3.80
2022-08-25T09:21:59.850Z,3.80
2022-08-25T09:25:08.329Z,3.80
2022-08-25T09:28:09.215Z,3.90
2022-08-25T09:30:58.632Z,3.70
2022-08-25T09:33:33.665Z,3.30
2022-08-25T09:36:08.882Z,3.80
2022-08-25T09:38:38.573Z,4.10
2022-08-25T09:41:08.676Z,3.70
2022-08-25T09:43:52.537Z,3.40
2022-08-25T09:46:30.175Z,3.40
2022-08-25T09:49:13.957Z,4.10
2022-08-25T09:51:44.756Z,4.40
2022-08-25T09:54:12.604Z,4.00
2022-08-25T09:56:52.830Z,4.20
2022-08-25T09:59:34.359Z,4.50
2022-08-25T10:02:21.237Z,4.20
2022-08-25T10:04:49.714Z,4.30
2022-08-25T10:07:36.810Z,4.40
2022-08-25T10:10:18.954Z,4.10
2022-08-25T10:12:51.191Z,4.10
2022-08-25T10:15:32.596Z,4.40
2022-08-25T10:18:15.877Z,4.30
2022-08-25T10:21:17.344Z,4.20
2022-08-25T10:23:52.876Z,3.40
2022-08-25T10:26:35.017Z,3.50
2022-08-25T10:29:29.683Z,4.00
2022-08-25T10:32:32.640Z,3.70
2022-08-25T10:35:13.689Z,3.90
2022-08-25T10:38:03.751Z,4.20
2022-08-25T10:40:45.687Z,3.70
2022-08-25T10:43:36.108Z,3.60
2022-08-25T10:46:27.833Z,4.10
2022-08-25T10:49:26.528Z,4.10
2022-08-25T10:52:07.766Z,4.20
2022-08-25T10:55:29.415Z,4.40
2022-08-25T10:58:12.072Z,4.10
2022-08-25T11:01:09.736Z,3.70
2022-08-25T11:04:12.503Z,4.00
2022-08-25T11:06:54.647Z,3.80
2022-08-25T11:09:30.667Z,3.70
2022-08-25T11:12:12.029Z,3.70
2022-08-25T11:14:49.861Z,4.20
2022-08-25T11:17:29.618Z,3.90
2022-08-25T11:20:07.320Z,3.90
2022-08-25T11:22:46.636Z,3.90
2022-08-25T11:25:21.639Z,4.10
2022-08-25T11:28:05.663Z,3.90
2022-08-25T11:30:34.143Z,4.10
2022-08-25T11:33:04.393Z,4.10
2022-08-25T11:36:03.485Z,3.80
2022-08-25T11:38:56.806Z,4.30
2022-08-25T11:41:36.446Z,4.00
2022-08-25T11:45:03.895Z,4.00
2022-08-25T11:47:59.454Z,4.00
2022-08-25T11:50:55.684Z,4.10
2022-08-25T11:53:43.134Z,4.20
2022-08-25T11:56:34.699Z,4.00
2022-08-25T11:59:04.490Z,4.50
2022-08-25T12:01:35.891Z,4.40
2022-08-25T12:04:34.114Z,4.50
2022-08-25T12:07:10.974Z,4.20
2022-08-25T12:09:51.361Z,4.10
2022-08-25T12:12:57.266Z,4.80
2022-08-25T12:21:06.953Z,4.10
2022-08-25T12:23:45.833Z,4.00
2022-08-25T12:26:39.910Z,4.80
2022-08-25T12:29:22.365Z,4.30
2022-08-25T12:32:33.396Z,4.70
2022-08-25T12:35:49.318Z,4.10
2022-08-25T12:38:43.597Z,4.70
2022-08-25T12:43:54.598Z,4.40
2022-08-25T12:46:29.917Z,5.00
2022-08-25T12:49:32.331Z,4.50
2022-08-25T12:52:16.819Z,4.50
2022-08-25T12:54:59.819Z,4.60
2022-08-25T12:57:44.889Z,4.50
2022-08-25T13:00:22.438Z,4.40
2022-08-25T13:03:15.399Z,4.80
2022-08-25T13:05:53.112Z,4.80
2022-08-25T13:08:56.276Z,4.70
2022-08-25T13:11:46.472Z,4.70
2022-08-25T13:17:06.895Z,4.80
2022-08-25T13:19:38.836Z,4.50
2022-08-25T13:22:20.914Z,4.70
2022-08-25T13:24:51.259Z,4.60
2022-08-25T13:27:28.322Z,4.60
2022-08-25T13:29:59.973Z,4.80
2022-08-25T13:32:36.774Z,5.30
2022-08-25T13:35:26.533Z,4.60
2022-08-25T13:38:21.414Z,4.40
2022-08-25T13:40:49.620Z,4.40
2022-08-25T13:43:17.700Z,5.30
2022-08-25T13:45:56.462Z,4.70
2022-08-25T13:48:39.198Z,4.40
2022-08-25T13:51:31.231Z,5.50
2022-08-25T13:54:29.810Z,4.90
2022-08-25T13:57:30.265Z,5.50
2022-08-25T14:00:09.368Z,5.30
2022-08-25T14:02:49.838Z,4.70
2022-08-25T14:05:45.707Z,4.40
2022-08-25T14:08:37.565Z,5.00
2022-08-25T14:11:14.951Z,4.60
2022-08-25T14:13:45.700Z,5.10
2022-08-25T14:16:20.034Z,5.00
2022-08-25T14:18:58.819Z,4.80
2022-08-25T14:21:33.778Z,4.80
2022-08-25T14:24:03.154Z,5.00
2022-08-25T14:26:31.495Z,5.00
2022-08-25T14:28:59.733Z,5.10
2022-08-25T14:31:34.127Z,4.80
2022-08-25T14:34:15.558Z,4.30
2022-08-25T14:36:46.202Z,4.80
2022-08-25T14:39:15.759Z,4.80
2022-08-25T14:41:52.513Z,5.20
2022-08-25T14:44:22.363Z,4.50
2022-08-25T14:46:55.519Z,4.90
2022-08-25T14:49:34.007Z,4.50
2022-08-25T14:52:22.683Z,4.70
2022-08-25T14:54:50.954Z,4.70
2022-08-25T14:57:21.113Z,4.80
2022-08-25T14:59:53.111Z,4.90
2022-08-25T15:02:29.521Z,5.40
2022-08-25T15:05:06.490Z,4.90
2022-08-25T15:07:54.491Z,5.10
2022-08-25T15:10:22.880Z,4.80
2022-08-25T15:12:53.990Z,4.80
2022-08-25T15:15:26.480Z,5.30
2022-08-25T15:17:58.138Z,4.80
2022-08-25T15:20:29.115Z,5.30
2022-08-25T15:22:57.943Z,5.30
2022-08-25T15:25:26.460Z,5.10
2022-08-25T15:27:57.257Z,4.90
2022-08-25T15:30:28.511Z,5.00
2022-08-25T15:32:59.977Z,5.10
2022-08-25T15:35:29.153Z,5.10
2022-08-25T15:37:57.861Z,4.70
2022-08-25T15:40:27.914Z,5.10
2022-08-25T15:42:55.996Z,5.20
2022-08-25T15:45:24.314Z,4.80
2022-08-25T15:47:54.131Z,5.20
2022-08-25T15:50:26.068Z,4.90
2022-08-25T15:52:54.352Z,4.80
2022-08-25T15:55:22.508Z,4.70
2022-08-25T15:57:51.469Z,5.60
2022-08-25T16:00:21.514Z,4.90
2022-08-25T16:02:50.797Z,5.30
2022-08-25T16:05:25.800Z,5.00
2022-08-25T16:10:22.627Z,5.20
2022-08-25T16:12:52.129Z,4.70
2022-08-25T16:15:23.949Z,5.30
2022-08-25T16:18:00.654Z,5.00
2022-08-25T16:20:32.303Z,4.80
2022-08-25T16:23:03.863Z,4.70
2022-08-25T16:25:32.575Z,5.00
2022-08-25T16:28:04.485Z,5.10
2022-08-25T16:30:32.440Z,5.70
2022-08-25T16:33:01.272Z,5.20
2022-08-25T16:35:31.209Z,5.30
2022-08-25T16:38:00.938Z,5.40
2022-08-25T16:40:32.770Z,5.70
2022-08-25T16:43:01.022Z,4.90
2022-08-25T16:45:29.027Z,4.50
2022-08-25T16:47:58.859Z,4.30
2022-08-25T16:50:27.378Z,5.40
2022-08-25T16:53:16.740Z,5.20
2022-08-25T16:55:46.322Z,4.90
2022-08-25T16:58:15.767Z,5.30
2022-08-25T17:00:44.860Z,4.90
2022-08-25T17:03:13.193Z,5.00
2022-08-25T17:05:43.577Z,5.00
2022-08-25T17:08:30.587Z,5.00
2022-08-25T17:11:24.135Z,5.00
2022-08-25T17:13:57.407Z,5.00
2022-08-25T17:16:32.827Z,4.50
2022-08-25T17:19:08.308Z,4.70
2022-08-25T17:21:45.121Z,4.50
2022-08-25T17:24:15.354Z,4.30
2022-08-25T17:26:46.475Z,4.50
2022-08-25T17:29:14.429Z,4.40
2022-08-25T17:31:44.189Z,4.90
2022-08-25T17:34:16.439Z,4.80
2022-08-25T17:36:45.378Z,4.20
2022-08-25T17:39:18.306Z,4.60
2022-08-25T17:41:46.533Z,4.80
2022-08-25T17:44:15.609Z,4.40
2022-08-25T17:46:47.004Z,4.50
2022-08-25T17:49:17.943Z,4.60
2022-08-25T17:51:46.000Z,4.60
2022-08-25T17:54:14.390Z,4.50
2022-08-25T17:56:42.462Z,4.20
2022-08-25T17:59:12.092Z,4.30
2022-08-25T18:01:42.034Z,4.70
2022-08-25T18:04:17.172Z,5.10
2022-08-25T18:06:48.601Z,4.90
2022-08-25T18:09:17.474Z,4.90
2022-08-25T18:11:46.437Z,4.60
2022-08-25T18:14:16.873Z,5.00
2022-08-25T18:16:46.126Z,5.20
2022-08-25T18:19:15.743Z,5.00
2022-08-25T18:21:44.105Z,4.80
2022-08-25T18:24:13.411Z,5.10
2022-08-25T18:26:42.393Z,5.20
2022-08-25T18:29:13.319Z,5.20
2022-08-25T18:31:42.331Z,5.10
2022-08-25T18:34:11.639Z,5.20
2022-08-25T18:36:41.832Z,5.20
2022-08-25T18:39:34.026Z,5.20
2022-08-25T18:42:06.428Z,4.80
2022-08-25T18:44:36.325Z,5.30
2022-08-25T18:47:07.903Z,5.30
2022-08-25T18:49:37.227Z,5.50
2022-08-25T18:52:07.515Z,5.20
2022-08-25T18:54:35.958Z,5.20
2022-08-25T18:57:08.170Z,5.10
2022-08-25T18:59:38.076Z,5.30
2022-08-25T19:02:07.721Z,5.40
2022-08-25T19:04:37.446Z,5.10
2022-08-25T19:07:08.030Z,5.30
2022-08-25T19:09:36.636Z,4.70
2022-08-25T19:12:04.910Z,4.90
2022-08-25T19:14:32.951Z,4.70
2022-08-25T19:17:01.765Z,4.70
2022-08-25T19:19:30.284Z,5.10
2022-08-25T19:21:59.595Z,4.70
2022-08-25T19:24:28.748Z,4.90
2022-08-25T19:27:02.335Z,5.60
2022-08-25T19:29:31.670Z,5.80
2022-08-25T19:32:02.043Z,5.90
2022-08-25T19:34:39.732Z,5.40
2022-08-25T19:37:12.066Z,5.20
2022-08-25T19:39:43.908Z,5.20
2022-08-25T19:42:35.139Z,5.50
2022-08-25T19:45:11.086Z,5.80
2022-08-25T19:47:41.439Z,6.10
2022-08-25T19:50:16.815Z,5.50
2022-08-25T19:52:49.921Z,5.90
2022-08-25T19:55:19.901Z,5.50
2022-08-25T19:57:48.299Z,5.20
2022-08-25T20:00:25.637Z,5.60
2022-08-25T20:02:53.897Z,5.50
2022-08-25T20:05:24.233Z,5.90
2022-08-25T20:07:56.534Z,15.10
2022-08-25T20:10:31.692Z,16.10
2022-08-25T20:13:00.202Z,15.00
2022-08-25T20:15:34.286Z,13.80
2022-08-25T20:18:02.928Z,12.40
2022-08-25T20:20:32.633Z,10.90
2022-08-25T20:23:23.174Z,10.00
2022-08-25T20:25:51.363Z,9.60
2022-08-25T20:28:19.945Z,9.10
2022-08-25T20:30:48.145Z,8.90
2022-08-25T20:33:22.589Z,8.30
2022-08-25T20:38:21.398Z,7.80
2022-08-25T20:40:49.503Z,7.90
2022-08-25T20:43:18.109Z,7.20
2022-08-25T20:45:49.492Z,6.90
2022-08-25T20:48:18.142Z,7.30
2022-08-25T20:50:46.252Z,7.80
2022-08-25T20:53:25.976Z,7.30
2022-08-25T20:55:53.976Z,7.70
2022-08-25T20:58:21.992Z,7.10
2022-08-25T21:00:51.730Z,7.30
2022-08-25T21:03:20.896Z,7.50
2022-08-25T21:05:53.972Z,7.40
2022-08-25T21:08:23.727Z,6.70
2022-08-25T21:10:54.109Z,6.90
2022-08-25T21:13:22.838Z,6.80
2022-08-25T21:15:51.023Z,7.00
2022-08-25T21:18:19.091Z,7.00
2022-08-25T21:20:47.373Z,6.90
2022-08-25T21:23:16.014Z,6.40
2022-08-25T21:25:44.342Z,6.50
2022-08-25T21:28:12.684Z,6.10
2022-08-25T21:30:44.800Z,6.20
2022-08-25T21:33:15.816Z,6.20
2022-08-25T21:35:44.170Z,5.50
2022-08-25T21:38:15.542Z,6.00
2022-08-25T21:40:44.895Z,6.30
2022-08-25T21:43:13.438Z,6.30
2022-08-25T21:45:46.652Z,6.00
2022-08-25T21:48:16.857Z,5.40
2022-08-25T21:50:45.427Z,5.60
2022-08-25T21:53:13.400Z,5.60
2022-08-25T21:55:44.412Z,5.60
2022-08-25T21:58:12.428Z,5.50
2022-08-25T22:00:41.731Z,5.30
2022-08-25T22:03:09.858Z,5.10
2022-08-25T22:05:40.568Z,4.90
2022-08-25T22:08:08.667Z,5.40
2022-08-25T22:10:44.943Z,5.00
2022-08-25T22:13:13.817Z,4.50
2022-08-25T22:15:41.881Z,4.40
2022-08-25T22:18:09.961Z,4.40
2022-08-25T22:20:39.098Z,4.50
2022-08-25T22:23:09.627Z,4.30
2022-08-25T22:25:48.605Z,4.20
2022-08-25T22:28:17.610Z,4.00
2022-08-25T22:30:46.129Z,4.20
2022-08-25T22:33:14.764Z,4.20
2022-08-25T22:35:42.972Z,4.30
2022-08-25T22:38:12.407Z,3.70
2022-08-25T22:40:41.479Z,3.90
2022-08-25T22:43:10.833Z,3.70
2022-08-25T22:45:40.000Z,3.80
2022-08-25T22:48:08.978Z,3.60
2022-08-25T22:50:37.980Z,3.60
2022-08-25T22:53:06.067Z,3.40
2022-08-25T22:55:42.168Z,3.40
2022-08-25T22:58:11.980Z,3.70
2022-08-25T23:00:41.673Z,3.40
2022-08-25T23:03:11.078Z,3.50
2022-08-25T23:05:40.549Z,3.40
2022-08-25T23:08:08.760Z,3.50
2022-08-25T23:10:36.813Z,3.30
2022-08-25T23:13:07.239Z,3.20
2022-08-25T23:15:35.455Z,3.50
2022-08-25T23:18:05.159Z,3.10
2022-08-25T23:20:51.761Z,3.20
2022-08-25T23:23:20.453Z,3.20
2022-08-25T23:25:51.310Z,3.10
2022-08-25T23:28:20.827Z,3.20
2022-08-25T23:30:59.177Z,2.90
2022-08-25T23:33:28.711Z,2.90
2022-08-25T23:36:10.726Z,3.00
2022-08-25T23:38:42.799Z,3.20
2022-08-25T23:41:20.572Z,2.60
2022-08-25T23:43:49.493Z,2.90
2022-08-25T23:46:23.005Z,2.80
2022-08-25T23:48:55.292Z,2.40
2022-08-25T23:51:27.476Z,2.40
2022-08-25T23:53:57.622Z,2.60
2022-08-25T23:56:27.228Z,3.50
2022-08-25T23:58:57.042Z,3.50
